Terminal Aerodrome Forecast
Issued by NWS Twin Cities, MN

Home | Current Version | Previous Version | Text Only | Print | Product List | Glossary On
Versions: 1 2 3 4 5 6 7 8 9 10 11 12 13 14 15 16
214
FTUS43 KMPX 241130
TAFSTC
TAF
KSTC 241130Z 2412/2512 36007KT P6SM BKN200
     FM241600 01013KT P6SM VCSH BKN080 OVC120
     FM242000 35011KT P6SM BKN100
     FM250200 35005KT P6SM SKC=

USA.gov is the U.S. government's official web portal to all federal, state and local government web resources and services.